PST,Max TemperatureF,Mean TemperatureF,Min TemperatureF,Max Dew PointF,MeanDew PointF,Min DewpointF,Max Humidity, Mean Humidity, Min Humidity, Max Sea Level PressureIn, Mean Sea Level PressureIn, Min Sea Level PressureIn, Max VisibilityMiles, Mean VisibilityMiles, Min VisibilityMiles, Max Wind SpeedMPH, Mean Wind SpeedMPH, Max Gust SpeedMPH,PrecipitationIn, CloudCover, Events, WindDirDegrees
2012-12-1,62,58,54,56,54,52,93,86,78,29.99,29.88,29.70,10,7,2,24,8,38,1.14,8,Rain,160
2012-12-2,63,53,42,57,50,40,96,76,55,30.13,29.77,29.57,10,6,2,23,6,39,2.32,6,Rain,206
2012-12-3,56,47,37,48,40,36,100,80,59,30.22,30.17,30.11,10,5,0,8,0,15,0.01,3,Fog-Rain,175
2012-12-4,54,52,49,52,49,46,96,87,77,30.20,30.15,30.11,10,7,2,14,5,18,0.93,8,Rain,163
2012-12-5,61,56,51,55,53,50,100,92,84,30.18,30.14,30.09,10,6,2,8,1,12,0.40,7,Rain,341
2012-12-6,57,48,39,50,45,38,96,79,62,30.17,30.13,30.09,10,10,3,9,2,13,T,5,Rain,343
2012-12-7,58,47,36,43,38,34,100,78,55,30.19,30.14,30.09,10,9,7,6,1,10,0.00,2,,318
2012-12-8,57,44,31,43,36,30,100,76,51,30.16,30.11,30.06,10,7,0,5,0,13,0.00,1,Fog,330
2012-12-9,64,50,35,47,40,34,100,73,46,30.23,30.19,30.15,10,10,7,7,1,7,0.00,0,,294
2012-12-10,67,51,35,49,42,35,100,73,45,30.27,30.20,30.12,10,9,6,6,1,9,0.00,0,,303
2012-12-11,58,47,36,46,40,36,100,83,66,30.11,29.99,29.83,10,4,0,9,1,12,0.21,6,Fog-Rain,55
2012-12-12,52,43,33,43,37,32,100,77,54,29.92,29.86,29.81,10,6,0,12,2,17,T,3,Fog-Rain,300
2012-12-13,52,41,29,36,31,28,100,75,50,29.97,29.92,29.86,10,5,0,5,1,6,0.00,2,Fog,93
2012-12-14,52,42,32,37,34,31,100,76,52,30.04,29.92,29.83,10,10,9,12,1,16,0.00,3,,313
2012-12-15,42,37,31,40,34,28,100,93,86,30.08,30.04,29.98,10,5,0,8,1,9,0.33,7,Fog-Rain,311
2012-12-16,51,46,41,49,43,39,96,95,93,30.09,30.04,29.93,10,5,2,13,5,21,0.22,8,Rain,163
2012-12-17,55,45,35,52,45,32,89,74,59,30.07,29.99,29.90,10,8,2,16,4,23,0.15,5,Rain,325
2012-12-18,49,40,31,33,29,27,96,71,46,30.22,30.11,30.04,10,10,8,17,4,22,0.00,0,,321
2012-12-19,52,39,26,31,28,25,92,69,46,30.33,30.24,30.17,10,10,9,13,3,17,0.00,3,,153
2012-12-20,49,45,40,46,39,27,93,71,49,30.16,30.00,29.88,10,6,2,20,9,31,1.00,8,Rain,154
2012-12-21,53,50,47,50,47,46,100,92,83,29.87,29.83,29.75,10,6,2,17,7,24,1.50,8,Rain,169
2012-12-22,51,46,40,45,41,37,93,77,61,30.03,29.89,29.76,10,8,2,20,5,29,0.96,7,Rain-Thunderstorm,166
2012-12-23,58,49,39,51,45,38,100,86,71,30.02,29.89,29.78,10,6,1,20,5,30,1.87,7,Rain,159
2012-12-24,52,44,35,40,38,35,100,80,59,30.23,30.15,30.04,10,6,0,6,0,7,0.01,4,Fog-Rain,240
2012-12-25,45,43,40,43,40,39,100,92,83,30.13,29.93,29.78,10,7,3,13,3,18,1.17,7,Rain,145
2012-12-26,52,46,40,43,40,37,100,82,63,30.12,29.93,29.84,10,8,2,17,6,23,0.48,6,Rain,320
2012-12-27,53,44,34,39,37,34,100,80,59,30.17,30.14,30.11,10,10,7,7,1,9,0.01,0,,315
2012-12-28,47,41,34,39,36,34,100,85,70,30.18,30.13,30.05,10,5,0,15,1,21,0.07,7,Fog-Rain,110
2012-12-29,54,44,34,38,36,34,100,73,46,30.12,30.07,30.01,10,9,1,6,0,9,0.01,2,,330
2012-12-30,53,42,30,38,32,28,100,73,46,30.22,30.11,30.08,10,4,0,5,0,13,0.00,1,Fog,280
2012-12-31,49,38,27,37,29,27,100,77,54,30.31,30.26,30.22,10,4,0,7,1,8,0.00,2,Fog,138